Time;durP1;ratioP1;P1;durP2;ratioP2;P2;SDS_P1;SDS_P2;PMS_P1;PMS_P2;Temp;Humidity;BMP_temperature;BMP_pressure;BME280_temperature;BME280_humidity;BME280_pressure;Samples;Min_cycle;Max_cycle;Signal;HPM_P1;HPM_P2
2023/08/05 00:00:35;;;;;;;0.90;0.90;;;;;;;23.45;67.62;96564.41;4983517;28;20047;-60
2023/08/05 00:03:02;;;;;;;1.10;1.10;;;;;;;23.38;67.91;96552.59;5015327;28;20060;-60
2023/08/05 00:05:28;;;;;;;1.02;1.02;;;;;;;22.94;68.20;96500.28;5014840;28;20623;-60
2023/08/05 00:07:55;;;;;;;1.10;1.10;;;;;;;22.92;68.27;96491.50;5015442;28;20241;-59
2023/08/05 00:10:22;;;;;;;1.00;1.00;;;;;;;23.36;68.16;96532.50;4987187;28;20061;-61
2023/08/05 00:12:48;;;;;;;1.10;1.10;;;;;;;23.16;69.18;96530.03;4985970;28;20058;-60
2023/08/05 00:15:15;;;;;;;1.00;1.00;;;;;;;23.11;69.23;96527.81;4987192;28;20060;-61
2023/08/05 00:17:41;;;;;;;1.30;1.30;;;;;;;22.99;69.65;96533.56;4987311;28;20061;-59
2023/08/05 00:20:11;;;;;;;1.00;1.00;;;;;;;22.97;70.28;96528.38;4987394;28;20057;-61
2023/08/05 00:22:38;;;;;;;1.02;1.02;;;;;;;23.02;70.00;96535.47;4987413;28;20074;-59
2023/08/05 00:25:05;;;;;;;1.02;1.02;;;;;;;22.92;70.11;96511.28;5018065;28;20047;-60
2023/08/05 00:27:32;;;;;;;1.10;1.10;;;;;;;23.07;69.47;96523.56;5021818;28;20497;-60
2023/08/05 00:29:58;;;;;;;1.10;1.10;;;;;;;23.03;70.08;96520.09;5007258;28;20064;-59
2023/08/05 00:32:27;;;;;;;1.10;1.10;;;;;;;22.91;69.82;96502.00;5006965;28;20081;-63
2023/08/05 00:34:53;;;;;;;0.90;0.90;;;;;;;22.68;69.59;96436.78;5006651;28;20077;-60
2023/08/05 00:37:20;;;;;;;1.13;1.13;;;;;;;22.75;69.55;96456.25;5006856;28;20074;-61
2023/08/05 00:39:47;;;;;;;1.05;1.05;;;;;;;23.02;69.15;96518.50;5006647;28;20167;-59
2023/08/05 00:42:18;;;;;;;1.00;1.00;;;;;;;22.82;68.56;96472.94;5006293;28;20081;-60
2023/08/05 00:44:45;;;;;;;1.00;1.00;;;;;;;22.94;69.47;96505.91;5006636;28;20061;-59
2023/08/05 00:47:13;;;;;;;0.90;0.90;;;;;;;22.88;69.71;96496.47;5005754;28;20493;-59
2023/08/05 00:49:39;;;;;;;0.90;0.90;;;;;;;22.59;70.40;96462.16;5004709;28;20652;-59
2023/08/05 00:52:07;;;;;;;1.13;1.13;;;;;;;22.66;71.11;96490.09;5005991;28;20053;-59
2023/08/05 00:54:35;;;;;;;0.90;0.90;;;;;;;22.64;70.82;96481.31;5006072;28;20054;-61
2023/08/05 00:57:02;;;;;;;0.90;0.90;;;;;;;22.10;71.01;96400.72;5005731;28;20133;-60
2023/08/05 00:59:29;;;;;;;1.00;1.00;;;;;;;22.23;71.42;96423.19;5006123;28;20049;-59
2023/08/05 01:01:56;;;;;;;1.00;1.00;;;;;;;22.55;71.44;96467.16;5005492;28;20046;-59
2023/08/05 01:04:23;;;;;;;1.00;1.00;;;;;;;22.53;71.52;96470.44;5006064;28;20050;-60
2023/08/05 01:06:50;;;;;;;0.95;0.95;;;;;;;22.51;71.32;96466.47;5005894;28;20907;-60
2023/08/05 01:09:17;;;;;;;1.08;1.08;;;;;;;22.40;71.29;96464.84;5005684;28;20575;-60
2023/08/05 01:11:44;;;;;;;0.88;0.88;;;;;;;22.30;70.99;96442.69;5005665;28;20057;-60
2023/08/05 01:14:11;;;;;;;1.00;1.00;;;;;;;22.36;71.19;96455.75;5005988;28;20065;-61
2023/08/05 01:16:37;;;;;;;0.90;0.90;;;;;;;22.30;71.25;96460.41;5003992;28;20578;-60
2023/08/05 01:19:10;;;;;;;1.00;1.00;;;;;;;22.37;71.14;96451.66;5005152;28;20443;-61
2023/08/05 01:22:10;;;;;;;0.90;0.90;;;;;;;22.40;70.33;96438.66;5004574;28;20513;-60
2023/08/05 01:25:03;;;;;;;0.93;0.93;;;;;;;22.31;71.33;96453.53;5004030;28;20052;-60
2023/08/05 01:27:32;;;;;;;0.90;0.90;;;;;;;22.09;71.97;96452.75;5005939;28;20076;-60
2023/08/05 01:29:59;;;;;;;1.00;1.00;;;;;;;21.66;72.32;96392.69;5005481;28;20319;-60
2023/08/05 01:32:27;;;;;;;1.00;1.00;;;;;;;21.98;71.78;96437.47;5020418;28;20129;-62
2023/08/05 01:34:54;;;;;;;0.90;0.90;;;;;;;21.73;71.13;96401.72;5005762;28;20057;-61
2023/08/05 01:37:21;;;;;;;0.90;0.90;;;;;;;22.04;70.65;96447.69;5005248;28;20497;-61
2023/08/05 01:39:47;;;;;;;0.90;0.90;;;;;;;21.55;70.67;96390.28;5005291;28;20435;-60
2023/08/05 01:42:14;;;;;;;1.00;1.00;;;;;;;21.98;70.42;96451.56;5004950;28;20045;-61
2023/08/05 01:44:41;;;;;;;0.90;0.90;;;;;;;21.93;70.08;96443.69;5005426;28;20056;-61
2023/08/05 01:47:07;;;;;;;0.90;0.90;;;;;;;21.60;70.00;96415.06;5004764;28;20560;-62
2023/08/05 01:49:35;;;;;;;0.90;0.90;;;;;;;21.96;69.45;96449.22;5004871;28;20539;-61
2023/08/05 01:52:03;;;;;;;0.82;0.82;;;;;;;22.00;69.31;96432.94;5004934;28;20049;-61
2023/08/05 01:54:30;;;;;;;1.00;1.00;;;;;;;22.10;68.54;96437.38;5019694;28;20485;-61
2023/08/05 01:56:57;;;;;;;0.80;0.80;;;;;;;22.13;68.04;96442.09;5004620;28;20091;-62
2023/08/05 01:59:23;;;;;;;0.90;0.90;;;;;;;22.19;68.01;96440.25;5005161;28;20538;-61
2023/08/05 02:01:50;;;;;;;1.10;1.10;;;;;;;22.16;68.56;96441.19;5004821;28;20512;-62
2023/08/05 02:04:17;;;;;;;1.05;1.05;;;;;;;22.20;68.38;96441.84;5005200;28;20417;-62
2023/08/05 02:06:43;;;;;;;0.90;0.90;;;;;;;22.26;68.33;96445.66;5004731;28;20049;-61
2023/08/05 02:09:10;;;;;;;1.10;1.10;;;;;;;22.25;67.79;96449.72;5004612;28;20516;-62
2023/08/05 02:11:37;;;;;;;1.00;1.00;;;;;;;22.27;67.57;96441.56;5019691;28;20050;-61
2023/08/05 02:14:03;;;;;;;0.98;0.98;;;;;;;21.82;68.27;96398.97;5004868;28;20077;-63
2023/08/05 02:16:34;;;;;;;1.00;1.00;;;;;;;21.77;67.80;96395.94;5004612;28;20053;-61
2023/08/05 02:19:01;;;;;;;1.08;1.08;;;;;;;21.95;67.92;96433.53;5019334;28;20060;-62
2023/08/05 02:21:27;;;;;;;0.90;0.90;;;;;;;22.07;67.51;96443.97;5004398;28;20050;-60
2023/08/05 02:23:54;;;;;;;1.00;1.00;;;;;;;21.66;67.44;96390.69;5004530;28;20052;-61
2023/08/05 02:26:21;;;;;;;1.05;1.05;;;;;;;21.97;67.99;96447.94;5004356;28;20432;-61
2023/08/05 02:28:48;;;;;;;0.95;0.95;;;;;;;21.85;68.39;96451.63;4984614;28;20050;-61
2023/08/05 02:31:15;;;;;;;1.00;1.00;;;;;;;21.35;68.23;96363.66;4983744;28;20054;-59
2023/08/05 02:33:42;;;;;;;1.00;1.00;;;;;;;21.91;68.58;96449.00;4984901;28;20050;-60
2023/08/05 02:36:09;;;;;;;0.98;0.98;;;;;;;21.91;67.62;96458.25;4984748;28;20066;-60
2023/08/05 02:38:36;;;;;;;0.90;0.90;;;;;;;21.89;67.73;96445.88;4984444;28;20065;-59
2023/08/05 02:41:07;;;;;;;0.90;0.90;;;;;;;21.88;66.57;96445.06;4984793;28;20065;-61
2023/08/05 02:43:34;;;;;;;0.80;0.80;;;;;;;21.96;66.15;96446.38;4984300;28;20050;-60
2023/08/05 02:46:00;;;;;;;1.00;1.00;;;;;;;21.52;65.74;96391.19;4984555;28;20084;-60
2023/08/05 02:48:27;;;;;;;0.90;0.90;;;;;;;21.14;70.02;96451.72;4984798;28;20156;-60
2023/08/05 02:50:55;;;;;;;0.90;0.90;;;;;;;21.27;70.00;96444.84;4984071;28;20050;-61
2023/08/05 02:53:22;;;;;;;0.90;0.90;;;;;;;21.29;70.19;96450.81;4983156;28;20054;-60
2023/08/05 02:55:49;;;;;;;1.00;1.00;;;;;;;21.43;66.71;96455.94;4982919;28;20060;-59
2023/08/05 02:58:17;;;;;;;0.88;0.88;;;;;;;21.16;66.40;96416.25;4984586;28;20141;-60
2023/08/05 03:00:45;;;;;;;0.88;0.88;;;;;;;21.58;65.36;96457.00;4984263;28;20491;-60
2023/08/05 03:03:12;;;;;;;0.80;0.80;;;;;;;21.47;65.50;96462.25;4984521;28;20464;-59
2023/08/05 03:05:38;;;;;;;0.90;0.90;;;;;;;20.90;65.05;96387.31;4999617;28;20058;-59
2023/08/05 03:08:05;;;;;;;1.00;1.00;;;;;;;21.43;65.33;96467.22;4983466;28;20141;-60
2023/08/05 03:10:32;;;;;;;1.00;1.00;;;;;;;21.46;63.85;96465.50;4984345;28;20433;-60
2023/08/05 03:12:58;;;;;;;0.93;0.93;;;;;;;21.41;63.58;96458.44;4984713;28;20421;-59
2023/08/05 03:15:29;;;;;;;0.90;0.90;;;;;;;21.34;63.02;96463.53;4975955;28;20054;-60
2023/08/05 03:17:55;;;;;;;0.80;0.80;;;;;;;21.43;62.35;96460.78;4984548;28;20050;-59
2023/08/05 03:20:27;;;;;;;0.90;0.90;;;;;;;21.33;62.30;96457.09;4984268;28;20145;-59
2023/08/05 03:22:55;;;;;;;0.88;0.88;;;;;;;21.19;62.69;96468.84;4984306;28;20551;-60
2023/08/05 03:25:23;;;;;;;0.90;0.90;;;;;;;18.91;62.26;96085.34;4979817;28;20521;-61
2023/08/05 03:27:50;;;;;;;1.00;1.00;;;;;;;21.05;64.21;96434.75;4995653;28;20053;-60
2023/08/05 03:30:18;;;;;;;1.00;1.00;;;;;;;21.19;62.88;96471.66;5003391;28;20068;-60
2023/08/05 03:32:48;;;;;;;0.95;0.95;;;;;;;21.11;62.78;96464.69;5003904;28;20440;-60
2023/08/05 03:35:15;;;;;;;0.90;0.90;;;;;;;21.23;62.70;96463.88;5001963;28;20525;-61
2023/08/05 03:37:44;;;;;;;0.90;0.90;;;;;;;21.20;62.75;96464.03;5002443;28;20065;-60
2023/08/05 03:40:11;;;;;;;0.82;0.82;;;;;;;20.69;63.09;96390.84;5003806;28;20053;-60
2023/08/05 03:42:38;;;;;;;0.93;0.93;;;;;;;21.23;62.97;96472.31;5005238;28;20057;-60
2023/08/05 03:45:05;;;;;;;0.90;0.90;;;;;;;21.35;62.88;96451.81;5007427;28;20058;-61
2023/08/05 03:47:33;;;;;;;0.90;0.90;;;;;;;21.39;62.22;96458.09;5007565;28;20050;-61
2023/08/05 03:50:00;;;;;;;1.00;1.00;;;;;;;21.07;61.65;96424.59;5007502;28;20319;-60
2023/08/05 03:52:27;;;;;;;0.90;0.90;;;;;;;21.48;61.21;96463.81;5007197;28;20124;-60
2023/08/05 03:54:54;;;;;;;1.00;1.00;;;;;;;21.29;65.68;96464.91;5006644;28;20053;-61
2023/08/05 03:57:21;;;;;;;0.90;0.90;;;;;;;20.57;71.00;96435.88;5007333;28;20058;-60
2023/08/05 03:59:49;;;;;;;0.90;0.90;;;;;;;21.03;71.28;96471.81;5007101;28;20119;-61
2023/08/05 04:02:17;;;;;;;0.90;0.90;;;;;;;21.15;71.38;96468.19;5007160;28;20152;-61
2023/08/05 04:04:44;;;;;;;0.80;0.80;;;;;;;21.26;71.30;96468.59;5006852;28;20050;-61
2023/08/05 04:07:12;;;;;;;0.90;0.90;;;;;;;21.16;71.09;96430.31;5007071;28;20397;-61
2023/08/05 04:09:40;;;;;;;0.90;0.90;;;;;;;21.45;69.25;96447.81;5006850;28;20381;-61
2023/08/05 04:12:09;;;;;;;1.08;1.08;;;;;;;21.41;68.37;96423.81;5005662;28;20503;-61
2023/08/05 04:14:39;;;;;;;0.82;0.82;;;;;;;21.80;67.97;96457.84;5006004;28;20054;-60
2023/08/05 04:17:08;;;;;;;0.90;0.90;;;;;;;21.80;68.46;96446.56;5005708;28;20491;-60
2023/08/05 04:19:36;;;;;;;0.90;0.90;;;;;;;21.02;72.79;96447.72;5005483;28;20100;-60
2023/08/05 04:22:04;;;;;;;0.85;0.85;;;;;;;20.68;72.15;96428.69;5005376;28;20152;-62
2023/08/05 04:24:32;;;;;;;0.90;0.90;;;;;;;21.17;70.27;96431.91;5006842;28;20050;-60
2023/08/05 04:26:59;;;;;;;0.73;0.73;;;;;;;21.29;71.24;96453.63;5006510;28;20058;-60
2023/08/05 04:29:26;;;;;;;0.80;0.80;;;;;;;20.81;72.34;96412.56;5021406;28;20050;-60
2023/08/05 04:31:53;;;;;;;0.90;0.90;;;;;;;21.18;71.92;96450.38;5006578;28;20054;-60
2023/08/05 04:34:20;;;;;;;0.90;0.90;;;;;;;21.35;69.55;96437.72;5006718;28;20332;-60
2023/08/05 04:36:49;;;;;;;0.80;0.80;;;;;;;21.70;67.31;96459.03;5006300;28;20057;-62
2023/08/05 04:39:20;;;;;;;0.90;0.90;;;;;;;22.08;64.34;96456.03;5006410;28;20111;-60
2023/08/05 04:41:47;;;;;;;0.90;0.90;;;;;;;22.14;63.17;96426.78;5005888;28;20081;-60
2023/08/05 04:44:14;;;;;;;0.90;0.90;;;;;;;21.97;62.52;96388.72;5006150;28;20046;-61
2023/08/05 04:46:41;;;;;;;0.90;0.90;;;;;;;22.65;61.36;96460.31;5021392;28;20061;-61
2023/08/05 04:49:09;;;;;;;1.00;1.00;;;;;;;22.77;60.92;96462.22;5006365;28;20054;-61
2023/08/05 04:51:36;;;;;;;1.00;1.00;;;;;;;20.98;59.56;96142.91;5006104;28;20452;-59
2023/08/05 04:54:04;;;;;;;0.90;0.90;;;;;;;23.09;59.04;96468.19;5005360;28;20057;-60
2023/08/05 04:56:31;;;;;;;0.90;0.90;;;;;;;22.69;58.47;96396.00;5005213;28;20053;-59
2023/08/05 04:58:57;;;;;;;1.02;1.02;;;;;;;23.39;57.28;96475.81;5021097;28;20062;-60
2023/08/05 05:01:25;;;;;;;1.10;1.10;;;;;;;23.55;57.38;96466.25;5006113;28;20046;-60
2023/08/05 05:03:52;;;;;;;1.00;1.00;;;;;;;23.69;56.34;96459.97;5006113;28;20424;-61
2023/08/05 05:06:19;;;;;;;1.00;1.00;;;;;;;23.28;55.59;96361.63;5021172;28;20129;-59
2023/08/05 05:08:46;;;;;;;1.15;1.15;;;;;;;23.97;56.34;96469.25;5006104;28;20053;-60
2023/08/05 05:11:12;;;;;;;1.00;1.00;;;;;;;24.21;56.30;96462.50;5020814;28;20084;-60
2023/08/05 05:13:39;;;;;;;1.02;1.02;;;;;;;24.26;56.10;96450.53;5005777;28;20046;-60
2023/08/05 05:16:06;;;;;;;1.10;1.10;;;;;;;24.35;55.88;96444.84;5005569;28;20065;-59
2023/08/05 05:18:33;;;;;;;1.13;1.13;;;;;;;24.60;55.97;96452.16;5005819;28;20054;-62
2023/08/05 05:21:00;;;;;;;1.17;1.17;;;;;;;24.73;54.84;96447.91;5005390;28;20050;-60
2023/08/05 05:23:27;;;;;;;1.10;1.10;;;;;;;24.97;54.35;96445.94;5005628;28;20060;-61
2023/08/05 05:25:54;;;;;;;1.17;1.17;;;;;;;24.53;54.12;96450.44;5020069;28;20054;-61
2023/08/05 05:28:20;;;;;;;1.10;1.10;;;;;;;24.90;54.45;96446.25;5005761;28;20050;-61
2023/08/05 05:30:47;;;;;;;1.00;1.00;;;;;;;25.12;51.82;96446.00;5003538;28;20077;-61
2023/08/05 05:33:14;;;;;;;1.17;1.17;;;;;;;24.71;53.84;96450.44;5005720;28;20053;-60
2023/08/05 05:35:40;;;;;;;1.20;1.20;;;;;;;25.06;52.69;96448.72;5005649;28;20069;-60
2023/08/05 05:38:07;;;;;;;1.05;1.05;;;;;;;25.40;51.69;96450.28;5005952;28;20129;-60
2023/08/05 05:40:39;;;;;;;1.30;1.30;;;;;;;25.54;50.80;96443.09;5003850;28;20516;-61
2023/08/05 05:43:07;;;;;;;1.33;1.33;;;;;;;25.81;51.08;96457.06;5003953;28;20143;-61
2023/08/05 05:45:36;;;;;;;1.33;1.33;;;;;;;25.71;50.38;96452.72;5005472;28;20046;-61
2023/08/05 05:48:03;;;;;;;1.30;1.30;;;;;;;25.59;50.47;96456.63;5004665;28;20049;-62
2023/08/05 05:50:30;;;;;;;1.30;1.30;;;;;;;25.74;51.24;96446.09;5004173;28;20144;-61
2023/08/05 05:52:57;;;;;;;1.20;1.20;;;;;;;25.82;51.38;96435.94;5005125;28;20057;-61
2023/08/05 05:55:24;;;;;;;1.30;1.30;;;;;;;26.14;51.46;96438.69;5004641;28;20607;-61
2023/08/05 05:57:50;;;;;;;1.25;1.25;;;;;;;26.26;51.20;96436.81;5004550;28;20060;-61
2023/08/05 06:00:17;;;;;;;1.40;1.40;;;;;;;26.29;51.75;96427.31;5004934;28;20332;-62
2023/08/05 06:02:44;;;;;;;1.40;1.40;;;;;;;26.30;52.04;96426.81;5004503;28;20068;-62
2023/08/05 06:05:17;;;;;;;1.40;1.40;;;;;;;26.23;52.55;96398.84;5002196;28;20054;-60
2023/08/05 06:07:44;;;;;;;1.40;1.40;;;;;;;26.18;53.78;96425.06;4984598;28;20539;-69
2023/08/05 06:10:11;;;;;;;1.38;1.38;;;;;;;26.36;53.94;96413.53;4981304;28;20058;-60
2023/08/05 06:12:38;;;;;;;1.30;1.30;;;;;;;24.62;54.82;96181.34;4972933;28;20054;-62
2023/08/05 06:15:07;;;;;;;1.38;1.38;;;;;;;25.85;56.45;96420.75;4944209;28;20066;-76
2023/08/05 06:17:34;;;;;;;1.30;1.30;;;;;;;26.36;55.21;96413.53;4952746;28;20076;-61
2023/08/05 06:20:01;;;;;;;1.20;1.20;;;;;;;25.54;54.88;96272.91;4954116;28;20058;-72
2023/08/05 06:22:27;;;;;;;1.30;1.30;;;;;;;26.72;54.63;96415.19;4957204;28;20050;-71
2023/08/05 06:24:54;;;;;;;1.40;1.40;;;;;;;26.72;54.28;96395.28;4942561;28;20042;-61
2023/08/05 06:27:21;;;;;;;1.40;1.40;;;;;;;26.37;55.67;96417.13;4958232;28;20057;-59
2023/08/05 06:29:47;;;;;;;1.30;1.30;;;;;;;26.63;54.66;96378.34;4964807;28;20068;-64
2023/08/05 06:32:14;;;;;;;1.33;1.33;;;;;;;24.32;54.38;95975.84;4955605;28;20054;-64
2023/08/05 06:34:41;;;;;;;1.63;1.63;;;;;;;26.98;52.55;96345.06;4968274;28;20835;-75
2023/08/05 06:37:09;;;;;;;1.40;1.40;;;;;;;27.00;53.47;96402.19;4955934;28;21124;-59
2023/08/05 06:39:35;;;;;;;1.40;1.40;;;;;;;26.97;53.32;96411.72;4955272;28;20084;-78
2023/08/05 06:42:02;;;;;;;1.30;1.30;;;;;;;26.66;54.56;96375.31;4973858;28;20253;-60
2023/08/05 06:44:29;;;;;;;1.30;1.30;;;;;;;27.00;54.83;96396.50;5001009;28;20060;-65
2023/08/05 06:46:56;;;;;;;1.45;1.45;;;;;;;26.94;54.67;96389.16;5001782;28;20053;-69
2023/08/05 06:49:22;;;;;;;1.30;1.30;;;;;;;26.29;55.47;96282.47;4994752;28;20146;-62
2023/08/05 06:51:50;;;;;;;1.50;1.50;;;;;;;26.67;54.90;96356.19;5001101;28;20913;-71
2023/08/05 06:54:21;;;;;;;1.42;1.42;;;;;;;26.48;56.13;96395.41;5001130;28;20041;-58
2023/08/05 06:56:48;;;;;;;1.48;1.48;;;;;;;26.25;57.54;96390.63;5002199;28;20141;-71
2023/08/05 06:59:14;;;;;;;1.40;1.40;;;;;;;26.45;56.86;96389.91;5000561;28;20058;-68
2023/08/05 07:01:41;;;;;;;1.35;1.35;;;;;;;26.62;57.22;96390.97;5001735;28;20085;-69
2023/08/05 07:04:08;;;;;;;1.33;1.33;;;;;;;26.61;56.18;96304.16;5003706;28;20050;-69
2023/08/05 07:06:34;;;;;;;1.60;1.60;;;;;;;27.27;55.84;96378.31;5003310;28;20153;-59
2023/08/05 07:09:03;;;;;;;1.40;1.40;;;;;;;26.99;56.73;96326.72;5003102;28;20057;-66
2023/08/05 07:11:30;;;;;;;1.27;1.27;;;;;;;27.46;55.49;96346.22;5003267;28;20508;-66
2023/08/05 07:13:57;;;;;;;1.50;1.50;;;;;;;27.12;55.65;96298.72;5003702;28;20050;-60
2023/08/05 07:16:24;;;;;;;1.60;1.60;;;;;;;26.90;56.83;96383.69;5002994;28;20049;-65
2023/08/05 07:18:50;;;;;;;1.30;1.30;;;;;;;27.11;56.37;96314.19;5006509;28;20147;-59
2023/08/05 07:21:17;;;;;;;1.60;1.60;;;;;;;27.83;54.71;96374.88;5006752;28;20066;-60
2023/08/05 07:23:44;;;;;;;1.50;1.50;;;;;;;27.68;54.94;96372.09;5007370;28;20065;-61
2023/08/05 07:26:10;;;;;;;1.50;1.50;;;;;;;27.26;55.33;96383.22;5007407;28;20501;-68
2023/08/05 07:28:37;;;;;;;1.50;1.50;;;;;;;26.94;56.34;96341.63;5007306;28;20077;-60
2023/08/05 07:31:05;;;;;;;1.50;1.50;;;;;;;27.57;55.11;96369.13;5006825;28;20054;-67
2023/08/05 07:33:32;;;;;;;1.55;1.55;;;;;;;26.80;54.37;96191.03;5007330;28;20053;-69
2023/08/05 07:36:22;;;;;;;1.63;1.63;;;;;;;27.27;58.13;96366.94;5006962;28;20056;-60
2023/08/05 07:38:51;;;;;;;1.67;1.67;;;;;;;27.13;59.19;96360.00;5006771;28;20050;-60
2023/08/05 07:41:20;;;;;;;1.50;1.50;;;;;;;27.74;58.19;96355.88;5004916;28;20504;-69
2023/08/05 07:43:47;;;;;;;1.83;1.83;;;;;;;27.69;56.47;96296.84;5006759;28;20129;-66
2023/08/05 07:46:14;;;;;;;1.80;1.80;;;;;;;28.01;56.11;96324.09;5006847;28;20080;-67
2023/08/05 07:48:42;;;;;;;1.70;1.70;;;;;;;27.52;56.50;96298.69;5005542;28;20598;-67
2023/08/05 07:51:09;;;;;;;1.40;1.40;;;;;;;27.87;55.63;96278.63;5006118;28;20647;-59
2023/08/05 07:53:36;;;;;;;1.65;1.65;;;;;;;28.01;55.38;96301.31;5005324;28;20049;-59
2023/08/05 07:56:09;;;;;;;1.60;1.60;;;;;;;28.00;56.37;96359.56;5006614;28;20049;-59
2023/08/05 07:58:40;;;;;;;;;;;;;;;28.39;55.60;96357.06;5006834;28;20104;-69
2023/08/05 08:01:07;;;;;;;1.45;1.45;;;;;;;27.69;55.44;96264.72;5006623;28;20431;-61
2023/08/05 08:03:34;;;;;;;1.65;1.65;;;;;;;28.07;55.76;96327.00;5005273;28;20151;-60
2023/08/05 08:06:01;;;;;;;1.30;1.30;;;;;;;28.09;54.54;96353.69;5006499;28;20050;-69
2023/08/05 08:08:28;;;;;;;1.80;1.80;;;;;;;26.00;54.67;95987.31;5005085;28;20058;-59
2023/08/05 08:10:54;;;;;;;1.70;1.70;;;;;;;28.41;54.09;96291.03;5006108;28;20155;-62
2023/08/05 08:13:21;;;;;;;1.58;1.58;;;;;;;28.19;53.59;96248.91;5006219;28;20053;-60
2023/08/05 08:15:48;;;;;;;1.60;1.60;;;;;;;28.90;51.72;96333.38;5005994;28;20057;-68
2023/08/05 08:18:14;;;;;;;1.73;1.73;;;;;;;29.08;51.65;96336.66;5004924;28;20050;-59
2023/08/05 08:20:48;;;;;;;1.70;1.70;;;;;;;29.35;51.17;96332.38;5004535;28;20054;-69
2023/08/05 08:23:14;;;;;;;1.70;1.70;;;;;;;29.51;51.25;96325.97;5006503;28;20057;-60
2023/08/05 08:25:41;;;;;;;2.05;2.05;;;;;;;29.41;50.93;96308.28;5004010;28;20534;-69
2023/08/05 08:28:08;;;;;;;1.77;1.77;;;;;;;28.93;50.97;96215.44;5006385;28;20119;-69
2023/08/05 08:30:35;;;;;;;1.80;1.80;;;;;;;29.12;51.03;96210.88;5004417;28;20050;-60
2023/08/05 08:33:01;;;;;;;1.73;1.73;;;;;;;29.84;50.15;96333.88;5006080;28;20049;-61
2023/08/05 08:35:28;;;;;;;1.90;1.90;;;;;;;29.97;50.19;96343.50;5020580;28;20642;-59
2023/08/05 08:37:55;;;;;;;1.77;1.77;;;;;;;30.18;48.92;96296.28;5006398;28;20046;-64
2023/08/05 08:40:22;;;;;;;1.95;1.95;;;;;;;30.37;48.79;96297.34;5020764;28;20054;-61
2023/08/05 08:42:51;;;;;;;1.73;1.73;;;;;;;29.79;49.65;96292.59;5006471;28;20568;-60
2023/08/05 08:45:21;;;;;;;1.80;1.80;;;;;;;29.70;48.83;96255.72;5005643;28;20046;-68
2023/08/05 08:47:49;;;;;;;2.05;2.05;;;;;;;29.87;48.53;96230.81;5020828;28;20064;-68
2023/08/05 08:50:17;;;;;;;1.83;1.83;;;;;;;30.26;48.72;96263.06;5005803;28;20053;-69
2023/08/05 08:52:47;;;;;;;1.98;1.98;;;;;;;30.21;48.21;96189.53;5003961;28;20112;-61
2023/08/05 08:55:15;;;;;;;1.88;1.88;;;;;;;29.64;49.90;96223.50;5005297;28;20144;-70
2023/08/05 08:57:41;;;;;;;1.60;1.60;;;;;;;30.48;49.25;96280.19;5005942;28;20046;-60
2023/08/05 09:00:09;;;;;;;1.58;1.58;;;;;;;30.77;48.35;96256.78;5005022;28;20433;-66
2023/08/05 09:02:36;;;;;;;1.98;1.98;;;;;;;30.88;47.86;96242.47;5005763;28;20049;-69
2023/08/05 09:05:03;;;;;;;1.85;1.85;;;;;;;30.87;48.76;96268.75;5004968;28;20878;-70
2023/08/05 09:07:30;;;;;;;1.88;1.88;;;;;;;31.15;48.38;96275.16;5005547;28;20050;-67
2023/08/05 09:10:03;;;;;;;1.80;1.80;;;;;;;30.82;48.12;96218.81;5005264;28;20531;-69
2023/08/05 09:12:31;;;;;;;1.90;1.90;;;;;;;31.31;48.29;96256.38;5020150;28;20058;-68
2023/08/05 09:14:58;;;;;;;2.05;2.05;;;;;;;31.60;47.83;96272.91;5005360;28;20062;-68
2023/08/05 09:17:26;;;;;;;1.90;1.90;;;;;;;30.81;48.95;96265.88;5005142;28;20056;-58
2023/08/05 09:19:53;;;;;;;1.90;1.90;;;;;;;31.28;48.59;96243.09;5019682;28;20536;-59
2023/08/05 09:22:20;;;;;;;2.00;2.00;;;;;;;31.24;48.88;96251.16;5004984;28;20058;-59
2023/08/05 09:24:46;;;;;;;1.98;1.98;;;;;;;30.44;48.85;96136.75;5005042;28;20054;-68
2023/08/05 09:27:13;;;;;;;1.80;1.80;;;;;;;31.35;48.82;96243.34;5004074;28;20089;-69
2023/08/05 09:29:40;;;;;;;1.90;1.90;;;;;;;31.19;47.84;96154.69;5003240;28;20050;-68
2023/08/05 09:32:07;;;;;;;2.10;2.10;;;;;;;31.68;46.47;96162.19;5004459;28;20054;-67
2023/08/05 09:34:38;;;;;;;2.20;2.20;;;;;;;31.73;48.00;96233.75;5004776;28;20065;-70
2023/08/05 09:37:08;;;;;;;2.30;2.30;;;;;;;31.89;47.99;96232.13;5004615;28;20069;-59
2023/08/05 09:39:44;;;;;;;1.80;1.80;;;;;;;32.10;47.58;96233.28;5018774;28;20061;-60
2023/08/05 09:42:24;;;;;;;1.80;1.80;;;;;;;31.36;48.64;96224.88;5004292;28;20135;-60
2023/08/05 09:44:57;;;;;;;1.90;1.90;;;;;;;31.39;48.97;96215.22;5004689;28;20427;-69
2023/08/05 09:47:27;;;;;;;;;;;;;;;31.08;48.12;96211.97;5003488;28;20093;-69
2023/08/05 09:50:03;;;;;;;1.90;1.90;;;;;;;31.17;48.58;96214.53;5003849;28;19937;-68
2023/08/05 09:52:30;;;;;;;;;;;;;;;31.16;48.65;96212.97;5004809;28;20050;-60
2023/08/05 09:55:02;;;;;;;1.90;1.90;;;;;;;31.30;47.54;96160.34;5004778;28;19929;-68
2023/08/05 09:57:30;;;;;;;2.05;2.05;;;;;;;31.87;47.23;96194.63;5004728;28;20053;-61
2023/08/05 09:59:58;;;;;;;1.90;1.90;;;;;;;31.05;47.22;96127.19;5004253;28;20057;-60
2023/08/05 10:02:26;;;;;;;2.00;2.00;;;;;;;31.62;47.53;96199.47;5002634;28;20500;-60
2023/08/05 10:04:54;;;;;;;2.30;2.30;;;;;;;31.50;47.25;96180.00;5003213;28;20054;-59
2023/08/05 10:07:24;;;;;;;2.30;2.30;;;;;;;31.66;47.19;96204.91;5004488;28;20136;-59
2023/08/05 10:09:52;;;;;;;1.85;1.85;;;;;;;30.39;47.39;96011.78;5002605;28;20056;-60
2023/08/05 10:12:26;;;;;;;2.00;2.00;;;;;;;31.01;48.64;96166.72;5002906;28;20053;-60
2023/08/05 10:14:55;;;;;;;2.10;2.10;;;;;;;31.58;47.91;96175.28;5004231;28;20050;-68
2023/08/05 10:17:23;;;;;;;1.90;1.90;;;;;;;32.36;45.83;96187.69;5003840;28;20129;-60
2023/08/05 10:19:50;;;;;;;2.03;2.03;;;;;;;32.51;44.88;96170.88;5003966;28;20054;-69
2023/08/05 10:22:25;;;;;;;1.80;1.80;;;;;;;32.37;45.12;96166.34;5002346;28;20053;-69
2023/08/05 10:24:57;;;;;;;2.08;2.08;;;;;;;32.45;45.32;96183.72;5003779;28;20052;-61
2023/08/05 10:27:42;;;;;;;2.15;2.15;;;;;;;30.97;45.35;95983.88;5003899;28;20555;-60
2023/08/05 10:30:14;;;;;;;2.28;2.28;;;;;;;32.51;43.05;96159.41;5003578;28;20556;-59
2023/08/05 10:32:50;;;;;;;2.13;2.13;;;;;;;32.74;42.49;96157.84;5004129;28;20049;-67
2023/08/05 10:35:30;;;;;;;2.10;2.10;;;;;;;33.52;41.21;96169.94;5003229;28;20050;-60
2023/08/05 10:38:16;;;;;;;1.98;1.98;;;;;;;33.64;40.59;96165.56;5003174;28;20068;-68
2023/08/05 10:40:43;;;;;;;1.80;1.80;;;;;;;33.64;39.24;96168.44;5003158;28;20046;-60
2023/08/05 10:43:10;;;;;;;1.98;1.98;;;;;;;31.70;38.45;95845.28;5003916;28;20579;-67
2023/08/05 10:45:42;;;;;;;2.17;2.17;;;;;;;33.81;37.87;96141.53;5004048;28;20120;-61
2023/08/05 10:48:10;;;;;;;2.17;2.17;;;;;;;33.72;38.04;96106.13;5004156;28;20140;-60
2023/08/05 10:50:38;;;;;;;2.13;2.13;;;;;;;34.24;37.84;96122.00;5003432;28;20061;-60
2023/08/05 10:53:08;;;;;;;2.08;2.08;;;;;;;34.46;36.44;96130.25;5001299;28;20050;-67
2023/08/05 10:55:49;;;;;;;1.92;1.92;;;;;;;34.68;35.34;96116.19;5002186;28;20479;-60
2023/08/05 10:58:22;;;;;;;2.10;2.10;;;;;;;33.99;35.98;96100.50;5003748;28;20072;-60
2023/08/05 11:01:03;;;;;;;1.90;1.90;;;;;;;33.84;35.87;96036.97;5001689;28;20065;-60
2023/08/05 11:03:52;;;;;;;1.90;1.90;;;;;;;34.98;35.80;96128.16;5003462;28;20046;-67
2023/08/05 11:06:23;;;;;;;2.00;2.00;;;;;;;35.51;32.14;96134.63;5002152;28;20079;-66
2023/08/05 11:08:50;;;;;;;1.90;1.90;;;;;;;35.62;30.11;96111.31;5003589;28;20049;-63
2023/08/05 11:11:17;;;;;;;2.28;2.28;;;;;;;35.88;30.37;96111.22;5003529;28;20421;-60
2023/08/05 11:13:45;;;;;;;1.92;1.92;;;;;;;35.27;30.12;96016.00;4998791;28;20116;-68
2023/08/05 11:16:17;;;;;;;2.20;2.20;;;;;;;35.45;30.52;96096.53;4983624;28;20050;-66
2023/08/05 11:18:57;;;;;;;1.92;1.92;;;;;;;35.63;31.79;96094.78;4982602;28;20062;-67
2023/08/05 11:21:24;;;;;;;2.10;2.10;;;;;;;34.78;32.64;96102.13;4982329;28;20057;-67
2023/08/05 11:23:51;;;;;;;1.90;1.90;;;;;;;35.43;32.21;96096.31;4983458;28;20505;-59
2023/08/05 11:26:21;;;;;;;1.83;1.83;;;;;;;35.27;31.42;96010.25;4983563;28;20070;-61
2023/08/05 11:28:48;;;;;;;2.10;2.10;;;;;;;35.22;31.28;96052.22;4996185;28;20170;-58
2023/08/05 11:31:26;;;;;;;1.95;1.95;;;;;;;35.81;30.58;96094.59;5003194;28;20454;-69
2023/08/05 11:33:54;;;;;;;2.28;2.28;;;;;;;35.89;29.84;96057.97;5002371;28;20139;-63
2023/08/05 11:36:25;;;;;;;2.13;2.13;;;;;;;36.03;29.68;96042.13;5001478;28;20543;-67
2023/08/05 11:38:56;;;;;;;1.90;1.90;;;;;;;36.36;30.13;96075.88;5003288;28;20050;-61